createdAt,value
2022-07-26T00:01:39.064Z,100.00
2022-07-26T00:04:06.268Z,100.00
2022-07-26T00:06:33.277Z,100.00
2022-07-26T00:09:00.407Z,100.00
2022-07-26T00:11:28.787Z,100.00
2022-07-26T00:13:55.740Z,100.00
2022-07-26T00:16:23.337Z,100.00
2022-07-26T00:18:50.214Z,100.00
2022-07-26T00:21:17.046Z,100.00
2022-07-26T00:23:44.113Z,100.00
2022-07-26T00:26:10.873Z,100.00
2022-07-26T00:28:37.776Z,100.00
2022-07-26T00:31:04.921Z,100.00
2022-07-26T00:33:31.814Z,100.00
2022-07-26T00:35:58.662Z,100.00
2022-07-26T00:38:25.869Z,100.00
2022-07-26T00:40:53.254Z,100.00
2022-07-26T00:43:20.157Z,100.00
2022-07-26T00:45:47.185Z,100.00
2022-07-26T00:48:14.022Z,100.00
2022-07-26T00:50:43.020Z,100.00
2022-07-26T00:53:10.006Z,100.00
2022-07-26T00:55:36.844Z,100.00
2022-07-26T00:58:03.731Z,100.00
2022-07-26T01:00:30.782Z,100.00
2022-07-26T01:03:00.511Z,100.00
2022-07-26T01:05:27.851Z,100.00
2022-07-26T01:07:55.317Z,100.00
2022-07-26T01:10:22.260Z,100.00
2022-07-26T01:12:49.081Z,100.00
2022-07-26T01:15:17.025Z,100.00
2022-07-26T01:17:44.303Z,100.00
2022-07-26T01:20:13.044Z,100.00
2022-07-26T01:22:40.364Z,100.00
2022-07-26T01:25:07.662Z,100.00
2022-07-26T01:27:39.430Z,100.00
2022-07-26T01:30:11.632Z,100.00
2022-07-26T01:32:38.759Z,100.00
2022-07-26T01:35:07.480Z,100.00
2022-07-26T01:37:34.553Z,100.00
2022-07-26T01:40:01.553Z,100.00
2022-07-26T01:42:28.360Z,100.00
2022-07-26T01:44:55.491Z,100.00
2022-07-26T01:47:22.405Z,100.00
2022-07-26T01:49:49.240Z,100.00
2022-07-26T01:52:16.303Z,100.00
2022-07-26T01:54:43.084Z,100.00
2022-07-26T01:57:09.918Z,100.00
2022-07-26T01:59:36.910Z,100.00
2022-07-26T02:02:03.776Z,100.00
2022-07-26T02:04:49.043Z,100.00
2022-07-26T02:07:16.043Z,100.00
2022-07-26T02:09:42.812Z,100.00
2022-07-26T02:12:09.934Z,100.00
2022-07-26T02:14:36.990Z,100.00
2022-07-26T02:17:04.043Z,100.00
2022-07-26T02:19:31.759Z,100.00
2022-07-26T02:21:59.099Z,100.00
2022-07-26T02:24:30.264Z,100.00
2022-07-26T02:26:58.369Z,100.00
2022-07-26T02:29:26.217Z,100.00
2022-07-26T02:31:54.147Z,100.00
2022-07-26T02:34:20.998Z,100.00
2022-07-26T02:36:48.085Z,100.00
2022-07-26T02:39:15.022Z,100.00
2022-07-26T02:41:42.010Z,100.00
2022-07-26T02:44:10.337Z,100.00
2022-07-26T02:46:38.141Z,100.00
2022-07-26T02:49:05.129Z,100.00
2022-07-26T02:51:32.513Z,100.00
2022-07-26T02:53:59.327Z,100.00
2022-07-26T02:56:26.147Z,100.00
2022-07-26T02:58:53.206Z,100.00
2022-07-26T03:01:20.296Z,100.00
2022-07-26T03:03:50.849Z,100.00
2022-07-26T03:06:19.429Z,100.00
2022-07-26T03:08:47.027Z,100.00
2022-07-26T03:11:14.236Z,100.00
2022-07-26T03:13:41.277Z,100.00
2022-07-26T03:16:08.634Z,100.00
2022-07-26T03:18:35.507Z,100.00
2022-07-26T03:21:03.200Z,100.00
2022-07-26T03:23:33.516Z,100.00
2022-07-26T03:26:02.162Z,100.00
2022-07-26T03:28:31.344Z,100.00
2022-07-26T03:30:58.459Z,100.00
2022-07-26T03:33:25.400Z,100.00
2022-07-26T03:35:52.477Z,100.00
2022-07-26T03:38:19.781Z,100.00
2022-07-26T03:40:46.689Z,100.00
2022-07-26T03:43:13.742Z,100.00
2022-07-26T03:45:42.313Z,100.00
2022-07-26T03:48:09.130Z,100.00
2022-07-26T03:50:36.588Z,100.00
2022-07-26T03:53:04.680Z,100.00
2022-07-26T03:55:50.059Z,100.00
2022-07-26T03:58:19.186Z,100.00
2022-07-26T04:00:46.670Z,100.00
2022-07-26T04:03:13.553Z,100.00
2022-07-26T04:05:40.659Z,100.00
2022-07-26T04:08:15.551Z,100.00
2022-07-26T04:10:46.184Z,100.00
2022-07-26T04:13:13.049Z,100.00
2022-07-26T04:15:39.932Z,100.00
2022-07-26T04:18:06.923Z,100.00
2022-07-26T04:20:33.788Z,100.00
2022-07-26T04:23:00.629Z,100.00
2022-07-26T04:25:27.756Z,100.00
2022-07-26T04:28:08.568Z,100.00
2022-07-26T04:30:35.960Z,100.00
2022-07-26T04:33:03.390Z,100.00
2022-07-26T04:35:30.321Z,100.00
2022-07-26T04:37:57.516Z,100.00
2022-07-26T04:40:25.912Z,99.24
2022-07-26T04:42:52.706Z,98.25
2022-07-26T04:45:20.935Z,97.56
2022-07-26T04:47:50.393Z,95.23
2022-07-26T04:50:19.127Z,94.32
2022-07-26T04:52:46.672Z,94.10
2022-07-26T04:55:13.773Z,93.03
2022-07-26T04:57:41.028Z,90.94
2022-07-26T05:00:26.981Z,90.95
2022-07-26T05:02:59.709Z,90.13
2022-07-26T05:05:29.491Z,89.13
2022-07-26T05:07:58.493Z,88.70
2022-07-26T05:10:35.397Z,86.91
2022-07-26T05:13:04.400Z,86.28
2022-07-26T05:15:36.709Z,84.16
2022-07-26T05:18:10.270Z,84.22
2022-07-26T05:20:38.308Z,81.02
2022-07-26T05:23:05.459Z,80.66
2022-07-26T05:25:32.603Z,79.90
2022-07-26T05:27:59.403Z,78.98
2022-07-26T05:30:26.608Z,75.52
2022-07-26T05:32:53.409Z,73.37
2022-07-26T05:35:20.277Z,72.43
2022-07-26T05:37:47.366Z,70.74
2022-07-26T05:40:14.414Z,70.72
2022-07-26T05:42:41.423Z,70.25
2022-07-26T05:45:09.360Z,69.19
2022-07-26T05:47:36.360Z,67.98
2022-07-26T05:50:04.744Z,66.52
2022-07-26T05:52:32.078Z,65.77
2022-07-26T05:54:58.940Z,65.80
2022-07-26T05:57:25.994Z,66.27
2022-07-26T05:59:53.035Z,64.37
2022-07-26T06:02:20.105Z,64.67
2022-07-26T06:04:47.594Z,63.04
2022-07-26T06:07:15.588Z,60.41
2022-07-26T06:09:42.593Z,54.44
2022-07-26T06:12:09.636Z,53.23
2022-07-26T06:14:36.667Z,50.34
2022-07-26T06:17:04.600Z,48.85
2022-07-26T06:19:31.988Z,49.22
2022-07-26T06:21:59.146Z,47.94
2022-07-26T06:24:26.029Z,45.51
2022-07-26T06:26:57.195Z,43.30
2022-07-26T06:29:32.618Z,42.83
2022-07-26T06:32:00.107Z,42.13
2022-07-26T06:34:27.121Z,40.07
2022-07-26T06:36:54.196Z,37.90
2022-07-26T06:39:21.155Z,35.63
2022-07-26T06:41:47.964Z,33.76
2022-07-26T06:44:15.058Z,32.58
2022-07-26T06:46:41.883Z,32.10
2022-07-26T06:49:08.900Z,32.22
2022-07-26T06:51:35.906Z,32.48
2022-07-26T06:54:03.826Z,31.89
2022-07-26T06:56:32.527Z,31.16
2022-07-26T06:58:59.574Z,31.15
2022-07-26T07:01:58.693Z,31.96
2022-07-26T07:04:13.580Z,30.04
2022-07-26T07:06:40.388Z,30.95
2022-07-26T07:09:08.319Z,30.01
2022-07-26T07:11:35.937Z,30.71
2022-07-26T07:14:03.481Z,30.81
2022-07-26T07:16:30.676Z,29.56
2022-07-26T07:18:57.796Z,29.26
2022-07-26T07:21:24.650Z,27.68
2022-07-26T07:23:51.466Z,26.82
2022-07-26T07:26:20.290Z,28.55
2022-07-26T07:28:47.153Z,28.94
2022-07-26T07:31:15.613Z,28.72
2022-07-26T07:33:52.657Z,28.60
2022-07-26T07:36:21.108Z,30.00
2022-07-26T07:38:49.432Z,30.74
2022-07-26T07:41:16.554Z,29.21
2022-07-26T07:43:43.356Z,28.81
2022-07-26T07:46:10.540Z,29.86
2022-07-26T07:48:43.432Z,27.99
2022-07-26T07:51:13.843Z,27.98
2022-07-26T07:53:40.656Z,28.47
2022-07-26T07:56:08.158Z,27.35
2022-07-26T07:58:35.190Z,27.75
2022-07-26T08:01:02.114Z,26.88
2022-07-26T08:03:38.421Z,25.99
2022-07-26T08:06:08.959Z,25.28
2022-07-26T08:08:37.024Z,24.77
2022-07-26T08:11:07.804Z,25.78
2022-07-26T08:13:35.205Z,24.12
2022-07-26T08:16:02.101Z,24.20
2022-07-26T08:18:29.143Z,23.25
2022-07-26T08:20:57.129Z,22.68
2022-07-26T08:23:24.106Z,23.02
2022-07-26T08:26:01.947Z,22.73
2022-07-26T08:28:48.400Z,24.12
2022-07-26T08:31:16.523Z,22.74
2022-07-26T08:33:45.812Z,22.91
2022-07-26T08:36:14.689Z,23.04
2022-07-26T08:38:41.954Z,22.11
2022-07-26T08:41:09.229Z,21.55
2022-07-26T08:43:52.362Z,20.74
2022-07-26T08:46:26.960Z,19.02
2022-07-26T08:48:55.970Z,18.01
2022-07-26T08:51:25.241Z,17.84
2022-07-26T08:54:04.855Z,17.73
2022-07-26T08:56:37.177Z,17.08
2022-07-26T08:59:20.330Z,16.81
2022-07-26T09:02:07.361Z,18.55
2022-07-26T09:04:43.684Z,17.17
2022-07-26T09:07:11.515Z,19.46
2022-07-26T09:10:03.809Z,19.40
2022-07-26T09:12:31.930Z,18.89
2022-07-26T09:15:01.138Z,18.90
2022-07-26T09:17:49.970Z,18.74
2022-07-26T09:20:24.417Z,19.02
2022-07-26T09:23:08.054Z,19.10
2022-07-26T09:25:40.596Z,18.74
2022-07-26T09:28:33.497Z,19.39
2022-07-26T09:31:03.384Z,19.49
2022-07-26T09:33:47.976Z,18.85
2022-07-26T09:36:15.826Z,18.52
2022-07-26T09:38:48.943Z,18.42
2022-07-26T09:41:23.547Z,19.15
2022-07-26T09:43:54.015Z,19.63
2022-07-26T09:46:23.243Z,20.44
2022-07-26T09:49:09.806Z,20.19
2022-07-26T09:51:39.131Z,21.14
2022-07-26T09:54:07.116Z,20.78
2022-07-26T09:56:44.386Z,22.11
2022-07-26T09:59:14.294Z,21.62
2022-07-26T10:01:42.322Z,19.75
2022-07-26T10:04:10.534Z,19.24
2022-07-26T10:06:37.981Z,19.78
2022-07-26T10:09:05.971Z,21.66
2022-07-26T10:11:41.676Z,21.28
2022-07-26T10:14:34.025Z,23.21
2022-07-26T10:17:21.557Z,22.15
2022-07-26T10:19:58.441Z,22.30
2022-07-26T10:22:27.381Z,22.75
2022-07-26T10:24:58.114Z,23.51
2022-07-26T10:27:42.687Z,23.95
2022-07-26T10:30:18.592Z,22.44
2022-07-26T10:32:51.582Z,23.84
2022-07-26T10:35:31.658Z,22.36
2022-07-26T10:38:00.959Z,23.07
2022-07-26T10:40:30.641Z,23.18
2022-07-26T10:43:39.622Z,21.73
2022-07-26T10:46:17.146Z,20.02
2022-07-26T10:49:06.370Z,20.61
2022-07-26T10:51:37.715Z,21.06
2022-07-26T10:54:10.018Z,20.81
2022-07-26T10:56:38.256Z,20.81
2022-07-26T10:59:06.045Z,19.98
2022-07-26T11:01:41.633Z,20.40
2022-07-26T11:04:19.474Z,21.21
2022-07-26T11:06:46.549Z,20.67
2022-07-26T11:09:13.946Z,21.93
2022-07-26T11:11:47.217Z,23.31
2022-07-26T11:14:18.032Z,24.31
2022-07-26T11:16:50.514Z,24.67
2022-07-26T11:19:24.826Z,23.90
2022-07-26T11:21:59.096Z,23.53
2022-07-26T11:24:26.963Z,24.36
2022-07-26T11:26:55.864Z,25.05
2022-07-26T11:29:37.343Z,23.99
2022-07-26T11:32:18.174Z,23.87
2022-07-26T11:34:45.745Z,22.81
2022-07-26T11:37:13.625Z,22.05
2022-07-26T11:39:40.581Z,22.45
2022-07-26T11:42:09.869Z,22.45
2022-07-26T11:44:37.291Z,21.98
2022-07-26T11:47:15.630Z,22.14
2022-07-26T11:50:01.294Z,22.37
2022-07-26T11:52:31.875Z,24.14
2022-07-26T11:54:59.403Z,24.21
2022-07-26T11:57:31.710Z,25.30
2022-07-26T12:00:00.616Z,26.36
2022-07-26T12:02:30.304Z,27.12
2022-07-26T12:05:14.981Z,28.06
2022-07-26T12:07:57.292Z,27.16
2022-07-26T12:10:24.488Z,28.40
2022-07-26T12:13:10.232Z,29.86
2022-07-26T12:15:53.494Z,29.58
2022-07-26T12:18:31.354Z,30.23
2022-07-26T12:21:05.551Z,29.54
2022-07-26T12:23:48.381Z,30.07
2022-07-26T12:26:34.164Z,31.62
2022-07-26T12:29:19.688Z,31.99
2022-07-26T12:31:47.514Z,33.79
2022-07-26T12:34:21.353Z,31.71
2022-07-26T12:36:48.417Z,31.60
2022-07-26T12:39:22.523Z,32.53
2022-07-26T12:41:50.665Z,32.20
2022-07-26T12:44:17.851Z,32.82
2022-07-26T12:46:45.025Z,33.24
2022-07-26T12:49:12.554Z,34.14
2022-07-26T12:51:40.083Z,33.22
2022-07-26T12:54:07.198Z,33.77
2022-07-26T12:56:34.522Z,35.13
2022-07-26T12:59:01.864Z,35.07
2022-07-26T13:01:30.286Z,35.34
2022-07-26T13:03:57.323Z,34.33
2022-07-26T13:06:24.463Z,34.56
2022-07-26T13:08:51.446Z,34.54
2022-07-26T13:11:18.400Z,35.13
2022-07-26T13:13:45.449Z,35.80
2022-07-26T13:16:12.638Z,36.62
2022-07-26T13:18:39.676Z,36.53
2022-07-26T13:21:06.947Z,37.39
2022-07-26T13:23:34.904Z,37.29
2022-07-26T13:26:02.779Z,37.23
2022-07-26T13:28:30.536Z,37.80
2022-07-26T13:30:57.596Z,38.75
2022-07-26T13:33:24.434Z,39.67
2022-07-26T13:35:51.559Z,38.70
2022-07-26T13:38:19.805Z,39.31
2022-07-26T13:40:47.070Z,39.67
2022-07-26T13:43:14.768Z,40.64
2022-07-26T13:45:41.821Z,41.45
2022-07-26T13:48:08.726Z,41.00
2022-07-26T13:50:35.773Z,41.72
2022-07-26T13:53:02.761Z,42.55
2022-07-26T13:55:29.611Z,44.03
2022-07-26T13:57:58.216Z,44.50
2022-07-26T14:00:27.089Z,45.47
2022-07-26T14:02:55.336Z,44.38
2022-07-26T14:05:23.359Z,46.02
2022-07-26T14:07:50.779Z,45.93
2022-07-26T14:10:18.323Z,46.70
2022-07-26T14:12:49.036Z,47.71
2022-07-26T14:15:21.755Z,49.75
2022-07-26T14:17:50.008Z,51.59
2022-07-26T14:20:20.064Z,50.69
2022-07-26T14:22:47.814Z,51.26
2022-07-26T14:25:14.959Z,52.91
2022-07-26T14:27:41.763Z,55.42
2022-07-26T14:30:08.982Z,56.87
2022-07-26T14:32:36.087Z,58.12
2022-07-26T14:35:03.243Z,59.86
2022-07-26T14:37:43.251Z,61.49
2022-07-26T14:40:17.267Z,62.10
2022-07-26T14:42:45.597Z,63.88
2022-07-26T14:45:13.823Z,65.60
2022-07-26T14:47:41.034Z,66.64
2022-07-26T14:50:09.479Z,68.73
2022-07-26T14:52:42.018Z,69.37
2022-07-26T14:55:09.688Z,72.96
2022-07-26T14:57:39.273Z,77.31
2022-07-26T15:00:11.977Z,79.82
2022-07-26T15:02:44.325Z,82.16
2022-07-26T15:05:12.873Z,82.97
2022-07-26T15:07:41.113Z,84.96
2022-07-26T15:10:10.882Z,85.81
2022-07-26T15:12:38.340Z,86.42
2022-07-26T15:15:07.272Z,86.10
2022-07-26T15:17:34.232Z,86.57
2022-07-26T15:20:01.616Z,85.73
2022-07-26T15:22:29.750Z,85.86
2022-07-26T15:24:56.733Z,87.63
2022-07-26T15:27:23.555Z,87.41
2022-07-26T15:29:51.004Z,88.37
2022-07-26T15:32:20.448Z,88.98
2022-07-26T15:34:47.240Z,90.31
2022-07-26T15:37:14.088Z,91.53
2022-07-26T15:39:41.374Z,90.02
2022-07-26T15:42:09.261Z,91.39
2022-07-26T15:44:38.870Z,92.56
2022-07-26T15:47:06.477Z,94.26
2022-07-26T15:49:34.217Z,95.94
2022-07-26T15:52:10.396Z,97.74
2022-07-26T15:54:37.636Z,99.62
2022-07-26T15:57:04.610Z,99.56
2022-07-26T15:59:31.791Z,100.00
2022-07-26T16:01:58.643Z,100.00
2022-07-26T16:04:25.468Z,100.00
2022-07-26T16:06:52.567Z,100.00
2022-07-26T16:09:20.004Z,100.00
2022-07-26T16:11:48.160Z,100.00
2022-07-26T16:14:16.180Z,100.00
2022-07-26T16:16:43.484Z,100.00
2022-07-26T16:19:11.048Z,100.00
2022-07-26T16:21:38.891Z,100.00
2022-07-26T16:24:07.515Z,100.00
2022-07-26T16:26:35.541Z,100.00
2022-07-26T16:29:03.587Z,100.00
2022-07-26T16:31:30.889Z,100.00
2022-07-26T16:33:58.195Z,100.00
2022-07-26T16:36:25.793Z,100.00
2022-07-26T16:38:52.644Z,100.00
2022-07-26T16:41:19.497Z,100.00
2022-07-26T16:43:46.515Z,100.00
2022-07-26T16:46:13.433Z,100.00
2022-07-26T16:48:40.372Z,100.00
2022-07-26T16:51:07.551Z,100.00
2022-07-26T16:53:34.366Z,100.00
2022-07-26T16:56:01.163Z,100.00
2022-07-26T16:58:28.212Z,100.00
2022-07-26T17:00:55.208Z,100.00
2022-07-26T17:03:22.049Z,100.00
2022-07-26T17:05:49.391Z,100.00
2022-07-26T17:08:16.625Z,100.00
2022-07-26T17:10:44.209Z,100.00
2022-07-26T17:13:11.657Z,100.00
2022-07-26T17:15:38.853Z,100.00
2022-07-26T17:18:05.726Z,100.00
2022-07-26T17:20:32.758Z,100.00
2022-07-26T17:22:59.675Z,100.00
2022-07-26T17:25:26.608Z,100.00
2022-07-26T17:30:20.544Z,100.00
2022-07-26T17:32:47.462Z,100.00
2022-07-26T17:35:14.618Z,100.00
2022-07-26T17:37:41.707Z,100.00
2022-07-26T17:40:09.426Z,100.00
2022-07-26T17:42:37.354Z,100.00
2022-07-26T17:45:05.879Z,100.00
2022-07-26T17:47:32.704Z,100.00
2022-07-26T17:50:26.464Z,100.00
2022-07-26T17:52:50.433Z,100.00
2022-07-26T17:55:21.011Z,100.00
2022-07-26T17:57:49.685Z,100.00
2022-07-26T18:00:20.397Z,100.00
2022-07-26T18:02:48.420Z,100.00
2022-07-26T18:05:16.752Z,100.00
2022-07-26T18:07:43.825Z,100.00
2022-07-26T18:10:11.666Z,100.00
2022-07-26T18:12:38.472Z,100.00
2022-07-26T18:15:07.097Z,100.00
2022-07-26T18:17:34.342Z,100.00
2022-07-26T18:20:01.142Z,100.00
2022-07-26T18:22:27.987Z,100.00
2022-07-26T18:24:54.991Z,100.00
2022-07-26T18:27:22.406Z,100.00
2022-07-26T18:29:50.286Z,100.00
2022-07-26T18:32:19.360Z,100.00
2022-07-26T18:34:52.111Z,100.00
2022-07-26T18:37:20.756Z,100.00
2022-07-26T18:39:48.390Z,100.00
2022-07-26T18:42:15.620Z,100.00
2022-07-26T18:44:42.847Z,100.00
2022-07-26T18:47:09.845Z,100.00
2022-07-26T18:49:36.805Z,100.00
2022-07-26T18:52:08.552Z,100.00
2022-07-26T18:54:36.236Z,100.00
2022-07-26T18:57:03.594Z,100.00
2022-07-26T18:59:31.267Z,100.00
2022-07-26T19:02:00.100Z,100.00
2022-07-26T19:04:28.159Z,100.00
2022-07-26T19:06:55.731Z,100.00
2022-07-26T19:09:22.614Z,100.00
2022-07-26T19:11:49.804Z,100.00
2022-07-26T19:14:17.086Z,100.00
2022-07-26T19:16:43.886Z,100.00
2022-07-26T19:19:11.053Z,100.00
2022-07-26T19:21:40.134Z,100.00
2022-07-26T19:24:07.178Z,100.00
2022-07-26T19:26:34.583Z,100.00
2022-07-26T19:29:01.727Z,100.00
2022-07-26T19:31:28.679Z,100.00
2022-07-26T19:33:55.572Z,100.00
2022-07-26T19:36:26.610Z,100.00
2022-07-26T19:38:55.914Z,100.00
2022-07-26T19:41:23.267Z,100.00
2022-07-26T19:43:50.261Z,100.00
2022-07-26T19:46:17.464Z,100.00
2022-07-26T19:48:44.968Z,100.00
2022-07-26T19:51:12.033Z,100.00
2022-07-26T19:53:38.812Z,100.00
2022-07-26T19:56:07.990Z,100.00
2022-07-26T19:58:34.864Z,100.00
2022-07-26T20:01:02.067Z,100.00
2022-07-26T20:03:29.106Z,100.00
2022-07-26T20:05:56.940Z,100.00
2022-07-26T20:08:24.459Z,100.00
2022-07-26T20:10:51.976Z,100.00
2022-07-26T20:13:19.241Z,100.00
2022-07-26T20:15:47.386Z,100.00
2022-07-26T20:18:14.552Z,100.00
2022-07-26T20:20:41.676Z,100.00
2022-07-26T20:23:11.065Z,100.00
2022-07-26T20:25:38.154Z,100.00
2022-07-26T20:28:05.320Z,100.00
2022-07-26T20:30:32.162Z,100.00
2022-07-26T20:32:59.242Z,100.00
2022-07-26T20:35:26.133Z,100.00
2022-07-26T20:37:53.012Z,100.00
2022-07-26T20:40:20.548Z,100.00
2022-07-26T20:42:50.334Z,100.00
2022-07-26T20:45:17.775Z,100.00
2022-07-26T20:47:44.829Z,100.00
2022-07-26T20:50:12.776Z,100.00
2022-07-26T20:52:40.132Z,100.00
2022-07-26T20:55:07.691Z,100.00
2022-07-26T20:57:34.777Z,100.00
2022-07-26T21:00:01.956Z,100.00
2022-07-26T21:02:29.148Z,100.00
2022-07-26T21:04:56.128Z,100.00
2022-07-26T21:07:24.274Z,100.00
2022-07-26T21:10:12.023Z,100.00
2022-07-26T21:12:38.874Z,100.00
2022-07-26T21:15:06.253Z,100.00
2022-07-26T21:17:34.805Z,100.00
2022-07-26T21:20:02.967Z,100.00
2022-07-26T21:22:29.991Z,100.00
2022-07-26T21:24:57.219Z,100.00
2022-07-26T21:27:24.048Z,100.00
2022-07-26T21:29:50.995Z,100.00
2022-07-26T21:32:17.991Z,100.00
2022-07-26T21:34:44.899Z,100.00
2022-07-26T21:37:11.740Z,100.00
2022-07-26T21:39:38.745Z,100.00
2022-07-26T21:42:05.570Z,100.00
2022-07-26T21:44:32.358Z,100.00
2022-07-26T21:46:59.471Z,100.00
2022-07-26T21:49:26.357Z,100.00
2022-07-26T21:51:53.285Z,100.00
2022-07-26T21:54:20.346Z,100.00
2022-07-26T21:56:47.155Z,100.00
2022-07-26T21:59:14.502Z,100.00
2022-07-26T22:01:42.805Z,100.00
2022-07-26T22:04:10.283Z,100.00
2022-07-26T22:06:37.825Z,100.00
2022-07-26T22:09:05.195Z,100.00
2022-07-26T22:11:32.041Z,100.00
2022-07-26T22:13:58.856Z,100.00
2022-07-26T22:16:25.923Z,100.00
2022-07-26T22:18:52.752Z,100.00
2022-07-26T22:21:19.620Z,100.00
2022-07-26T22:23:46.714Z,100.00
2022-07-26T22:26:14.340Z,100.00
2022-07-26T22:28:41.204Z,100.00
2022-07-26T22:31:08.391Z,100.00
2022-07-26T22:33:35.229Z,100.00
2022-07-26T22:36:02.016Z,100.00
2022-07-26T22:38:30.432Z,100.00
2022-07-26T22:40:57.325Z,100.00
2022-07-26T22:43:24.092Z,100.00
2022-07-26T22:45:51.508Z,100.00
2022-07-26T22:48:18.507Z,100.00
2022-07-26T22:50:45.455Z,100.00
2022-07-26T22:53:12.601Z,100.00
2022-07-26T22:55:39.500Z,100.00
2022-07-26T22:58:06.348Z,100.00
2022-07-26T23:00:33.445Z,100.00
2022-07-26T23:03:00.275Z,100.00
2022-07-26T23:05:36.073Z,100.00
2022-07-26T23:08:36.267Z,100.00
2022-07-26T23:10:59.761Z,100.00
2022-07-26T23:13:26.763Z,100.00
2022-07-26T23:15:58.137Z,100.00
2022-07-26T23:18:27.319Z,100.00
2022-07-26T23:20:54.108Z,100.00
2022-07-26T23:23:20.950Z,100.00
2022-07-26T23:25:47.943Z,100.00
2022-07-26T23:28:24.753Z,100.00
2022-07-26T23:31:14.398Z,100.00
2022-07-26T23:33:52.775Z,100.00
2022-07-26T23:36:26.192Z,100.00
2022-07-26T23:38:57.536Z,100.00
2022-07-26T23:41:25.358Z,100.00
2022-07-26T23:43:53.065Z,100.00
2022-07-26T23:46:20.799Z,100.00
2022-07-26T23:48:48.207Z,100.00
2022-07-26T23:51:15.375Z,100.00
2022-07-26T23:53:42.438Z,100.00
2022-07-26T23:56:09.806Z,100.00
2022-07-26T23:58:36.717Z,100.00
